sensor_id;sensor_type;location;lat;lon;timestamp;P1;durP1;ratioP1;P2;durP2;ratioP2
20772;SDS011;10546;50.674;4.616;2022-11-04T07:10:44;8.90;;;3.03;;
20772;SDS011;10546;50.674;4.616;2022-11-04T07:13:31;9.90;;;2.60;;
20772;SDS011;10546;50.674;4.616;2022-11-04T07:15:57;6.17;;;2.40;;
20772;SDS011;10546;50.674;4.616;2022-11-04T07:18:23;8.50;;;2.73;;
20772;SDS011;10546;50.674;4.616;2022-11-04T07:20:49;13.40;;;3.10;;
20772;SDS011;10546;50.674;4.616;2022-11-04T07:23:15;12.07;;;2.90;;
20772;SDS011;10546;50.674;4.616;2022-11-04T07:25:41;9.03;;;2.83;;
20772;SDS011;10546;50.674;4.616;2022-11-04T07:28:07;8.27;;;3.00;;
20772;SDS011;10546;50.674;4.616;2022-11-04T07:30:33;12.77;;;4.10;;
20772;SDS011;10546;50.674;4.616;2022-11-04T07:32:59;9.70;;;2.73;;
20772;SDS011;10546;50.674;4.616;2022-11-04T07:35:24;8.47;;;2.33;;
20772;SDS011;10546;50.674;4.616;2022-11-04T07:37:50;10.87;;;2.93;;
20772;SDS011;10546;50.674;4.616;2022-11-04T07:40:15;7.83;;;2.70;;
20772;SDS011;10546;50.674;4.616;2022-11-04T07:42:41;7.87;;;2.50;;
20772;SDS011;10546;50.674;4.616;2022-11-04T07:45:07;6.53;;;2.20;;
20772;SDS011;10546;50.674;4.616;2022-11-04T07:47:33;10.20;;;2.50;;
20772;SDS011;10546;50.674;4.616;2022-11-04T07:49:58;11.13;;;2.53;;
20772;SDS011;10546;50.674;4.616;2022-11-04T07:52:24;8.60;;;2.67;;
20772;SDS011;10546;50.674;4.616;2022-11-04T07:54:50;7.00;;;2.43;;
20772;SDS011;10546;50.674;4.616;2022-11-04T07:57:15;12.83;;;4.67;;
20772;SDS011;10546;50.674;4.616;2022-11-04T07:59:41;6.87;;;2.80;;
20772;SDS011;10546;50.674;4.616;2022-11-04T08:02:07;8.30;;;2.50;;
20772;SDS011;10546;50.674;4.616;2022-11-04T08:04:34;13.77;;;2.60;;
20772;SDS011;10546;50.674;4.616;2022-11-04T08:06:59;9.77;;;3.30;;
20772;SDS011;10546;50.674;4.616;2022-11-04T08:09:26;11.17;;;2.90;;
20772;SDS011;10546;50.674;4.616;2022-11-04T08:11:51;10.40;;;2.70;;
20772;SDS011;10546;50.674;4.616;2022-11-04T08:14:17;10.20;;;2.23;;
20772;SDS011;10546;50.674;4.616;2022-11-04T08:16:42;4.67;;;2.47;;
20772;SDS011;10546;50.674;4.616;2022-11-04T08:19:08;10.53;;;3.17;;
20772;SDS011;10546;50.674;4.616;2022-11-04T08:21:34;7.37;;;2.77;;
20772;SDS011;10546;50.674;4.616;2022-11-04T08:23:59;5.53;;;2.53;;
20772;SDS011;10546;50.674;4.616;2022-11-04T08:26:27;8.87;;;2.47;;
20772;SDS011;10546;50.674;4.616;2022-11-04T08:28:53;6.60;;;2.50;;
20772;SDS011;10546;50.674;4.616;2022-11-04T08:33:45;14.27;;;3.40;;
20772;SDS011;10546;50.674;4.616;2022-11-04T08:36:13;10.50;;;2.90;;
20772;SDS011;10546;50.674;4.616;2022-11-04T08:38:40;12.77;;;2.80;;
20772;SDS011;10546;50.674;4.616;2022-11-04T08:41:06;9.93;;;2.80;;
20772;SDS011;10546;50.674;4.616;2022-11-04T08:43:33;11.83;;;3.17;;
20772;SDS011;10546;50.674;4.616;2022-11-04T08:45:59;10.97;;;3.67;;
20772;SDS011;10546;50.674;4.616;2022-11-04T08:48:26;22.73;;;8.77;;
20772;SDS011;10546;50.674;4.616;2022-11-04T08:50:53;9.43;;;3.13;;
20772;SDS011;10546;50.674;4.616;2022-11-04T08:53:22;9.70;;;2.80;;
20772;SDS011;10546;50.674;4.616;2022-11-04T08:55:48;6.40;;;2.77;;
20772;SDS011;10546;50.674;4.616;2022-11-04T08:58:14;9.33;;;2.83;;
20772;SDS011;10546;50.674;4.616;2022-11-04T09:00:41;9.03;;;2.90;;
20772;SDS011;10546;50.674;4.616;2022-11-04T09:03:07;7.17;;;2.40;;
20772;SDS011;10546;50.674;4.616;2022-11-04T09:05:32;12.27;;;2.90;;
20772;SDS011;10546;50.674;4.616;2022-11-04T09:08:00;6.93;;;2.70;;
20772;SDS011;10546;50.674;4.616;2022-11-04T09:10:25;8.70;;;2.83;;
20772;SDS011;10546;50.674;4.616;2022-11-04T09:12:53;8.20;;;2.40;;
20772;SDS011;10546;50.674;4.616;2022-11-04T09:15:18;9.33;;;2.70;;
20772;SDS011;10546;50.674;4.616;2022-11-04T09:17:44;10.57;;;2.40;;
20772;SDS011;10546;50.674;4.616;2022-11-04T09:20:09;8.73;;;2.53;;
20772;SDS011;10546;50.674;4.616;2022-11-04T09:22:36;11.50;;;2.93;;
20772;SDS011;10546;50.674;4.616;2022-11-04T09:25:01;7.73;;;2.43;;
20772;SDS011;10546;50.674;4.616;2022-11-04T09:27:27;13.90;;;2.80;;
20772;SDS011;10546;50.674;4.616;2022-11-04T09:29:53;14.10;;;2.90;;
20772;SDS011;10546;50.674;4.616;2022-11-04T09:32:19;12.13;;;3.03;;
20772;SDS011;10546;50.674;4.616;2022-11-04T09:34:44;13.50;;;2.73;;
20772;SDS011;10546;50.674;4.616;2022-11-04T09:37:10;9.33;;;2.60;;
20772;SDS011;10546;50.674;4.616;2022-11-04T09:39:35;14.53;;;2.93;;
20772;SDS011;10546;50.674;4.616;2022-11-04T09:45:00;12.38;;;2.75;;
20772;SDS011;10546;50.674;4.616;2022-11-04T09:47:32;8.13;;;2.00;;
20772;SDS011;10546;50.674;4.616;2022-11-04T09:49:59;7.67;;;2.10;;
20772;SDS011;10546;50.674;4.616;2022-11-04T09:54:55;11.20;;;2.30;;
20772;SDS011;10546;50.674;4.616;2022-11-04T09:57:46;5.95;;;1.92;;
20772;SDS011;10546;50.674;4.616;2022-11-04T10:00:18;6.00;;;2.13;;
20772;SDS011;10546;50.674;4.616;2022-11-04T10:05:33;6.70;;;2.10;;
20772;SDS011;10546;50.674;4.616;2022-11-04T10:16:45;10.32;;;2.28;;
20772;SDS011;10546;50.674;4.616;2022-11-04T10:22:25;16.98;;;3.20;;
20772;SDS011;10546;50.674;4.616;2022-11-04T10:25:20;9.50;;;2.38;;
20772;SDS011;10546;50.674;4.616;2022-11-04T10:27:49;6.13;;;1.85;;
20772;SDS011;10546;50.674;4.616;2022-11-04T10:30:17;8.32;;;2.47;;
20772;SDS011;10546;50.674;4.616;2022-11-04T10:32:51;6.65;;;2.13;;
20772;SDS011;10546;50.674;4.616;2022-11-04T10:35:21;11.63;;;2.95;;
20772;SDS011;10546;50.674;4.616;2022-11-04T10:37:57;10.13;;;2.57;;
20772;SDS011;10546;50.674;4.616;2022-11-04T10:40:32;5.53;;;2.10;;
20772;SDS011;10546;50.674;4.616;2022-11-04T10:43:01;5.80;;;1.63;;
20772;SDS011;10546;50.674;4.616;2022-11-04T10:45:35;6.00;;;2.13;;
20772;SDS011;10546;50.674;4.616;2022-11-04T10:48:15;9.37;;;2.23;;
20772;SDS011;10546;50.674;4.616;2022-11-04T10:50:53;8.13;;;2.60;;
20772;SDS011;10546;50.674;4.616;2022-11-04T10:53:28;6.45;;;2.20;;
20772;SDS011;10546;50.674;4.616;2022-11-04T10:56:09;7.28;;;2.80;;
20772;SDS011;10546;50.674;4.616;2022-11-04T10:58:46;10.83;;;2.53;;
20772;SDS011;10546;50.674;4.616;2022-11-04T11:01:28;9.52;;;3.22;;
20772;SDS011;10546;50.674;4.616;2022-11-04T11:03:56;11.70;;;3.10;;
20772;SDS011;10546;50.674;4.616;2022-11-04T11:06:24;13.43;;;3.20;;
20772;SDS011;10546;50.674;4.616;2022-11-04T11:09:10;9.30;;;3.03;;
20772;SDS011;10546;50.674;4.616;2022-11-04T11:11:40;8.93;;;3.40;;
20772;SDS011;10546;50.674;4.616;2022-11-04T11:14:15;11.00;;;3.10;;
20772;SDS011;10546;50.674;4.616;2022-11-04T11:16:41;9.97;;;3.20;;
20772;SDS011;10546;50.674;4.616;2022-11-04T11:21:43;11.77;;;3.57;;
20772;SDS011;10546;50.674;4.616;2022-11-04T11:24:19;9.40;;;3.83;;
20772;SDS011;10546;50.674;4.616;2022-11-04T11:26:51;37.07;;;4.80;;
20772;SDS011;10546;50.674;4.616;2022-11-04T11:31:49;14.70;;;4.50;;
20772;SDS011;10546;50.674;4.616;2022-11-04T11:34:20;9.17;;;3.80;;
20772;SDS011;10546;50.674;4.616;2022-11-04T11:36:50;8.67;;;3.43;;
20772;SDS011;10546;50.674;4.616;2022-11-04T11:39:18;9.07;;;3.97;;
20772;SDS011;10546;50.674;4.616;2022-11-04T11:47:03;10.00;;;4.15;;
20772;SDS011;10546;50.674;4.616;2022-11-04T11:49:31;12.90;;;5.23;;
20772;SDS011;10546;50.674;4.616;2022-11-04T11:55:03;11.23;;;4.63;;
20772;SDS011;10546;50.674;4.616;2022-11-04T11:57:51;12.93;;;4.57;;
20772;SDS011;10546;50.674;4.616;2022-11-04T12:00:46;10.53;;;4.23;;
20772;SDS011;10546;50.674;4.616;2022-11-04T12:03:28;13.20;;;4.78;;
20772;SDS011;10546;50.674;4.616;2022-11-04T12:14:31;9.82;;;4.20;;
20772;SDS011;10546;50.674;4.616;2022-11-04T12:19:57;10.82;;;3.90;;
20772;SDS011;10546;50.674;4.616;2022-11-04T12:25:37;16.60;;;4.10;;
20772;SDS011;10546;50.674;4.616;2022-11-04T12:28:25;7.10;;;3.27;;
20772;SDS011;10546;50.674;4.616;2022-11-04T12:33:46;5.93;;;2.50;;
20772;SDS011;10546;50.674;4.616;2022-11-04T12:38:52;8.50;;;3.23;;
20772;SDS011;10546;50.674;4.616;2022-11-04T12:44:32;10.20;;;4.90;;
20772;SDS011;10546;50.674;4.616;2022-11-04T12:55:05;10.90;;;5.32;;
20772;SDS011;10546;50.674;4.616;2022-11-04T12:57:45;11.93;;;5.45;;
20772;SDS011;10546;50.674;4.616;2022-11-04T13:00:27;9.47;;;4.87;;
20772;SDS011;10546;50.674;4.616;2022-11-04T13:08:19;10.80;;;5.20;;
20772;SDS011;10546;50.674;4.616;2022-11-04T13:11:11;13.63;;;5.47;;
20772;SDS011;10546;50.674;4.616;2022-11-04T13:13:58;13.98;;;5.97;;
20772;SDS011;10546;50.674;4.616;2022-11-04T13:16:47;11.57;;;6.10;;
20772;SDS011;10546;50.674;4.616;2022-11-04T13:21:50;14.13;;;6.80;;
20772;SDS011;10546;50.674;4.616;2022-11-04T13:24:27;18.77;;;6.40;;
20772;SDS011;10546;50.674;4.616;2022-11-04T13:27:02;14.75;;;5.90;;
20772;SDS011;10546;50.674;4.616;2022-11-04T13:38:18;16.07;;;8.73;;
20772;SDS011;10546;50.674;4.616;2022-11-04T13:43:54;19.00;;;8.43;;
20772;SDS011;10546;50.674;4.616;2022-11-04T13:46:24;14.53;;;8.53;;
20772;SDS011;10546;50.674;4.616;2022-11-04T13:51:32;18.57;;;9.87;;
20772;SDS011;10546;50.674;4.616;2022-11-04T13:54:04;16.00;;;8.87;;
20772;SDS011;10546;50.674;4.616;2022-11-04T13:56:35;19.00;;;10.00;;
20772;SDS011;10546;50.674;4.616;2022-11-04T13:59:21;16.33;;;9.43;;
20772;SDS011;10546;50.674;4.616;2022-11-04T14:04:41;19.60;;;9.90;;
20772;SDS011;10546;50.674;4.616;2022-11-04T14:07:08;23.23;;;10.03;;
20772;SDS011;10546;50.674;4.616;2022-11-04T14:22:31;20.60;;;10.63;;
20772;SDS011;10546;50.674;4.616;2022-11-04T14:25:00;20.33;;;10.77;;
20772;SDS011;10546;50.674;4.616;2022-11-04T14:27:41;24.97;;;12.63;;
20772;SDS011;10546;50.674;4.616;2022-11-04T14:30:25;22.83;;;12.17;;
20772;SDS011;10546;50.674;4.616;2022-11-04T14:35:52;21.27;;;12.63;;
20772;SDS011;10546;50.674;4.616;2022-11-04T14:38:29;30.93;;;15.60;;
20772;SDS011;10546;50.674;4.616;2022-11-04T14:44:00;24.23;;;10.73;;
20772;SDS011;10546;50.674;4.616;2022-11-04T14:46:33;18.63;;;10.83;;
20772;SDS011;10546;50.674;4.616;2022-11-04T14:49:04;16.33;;;10.67;;
20772;SDS011;10546;50.674;4.616;2022-11-04T14:51:30;17.73;;;9.97;;
20772;SDS011;10546;50.674;4.616;2022-11-04T14:54:04;19.37;;;9.53;;
20772;SDS011;10546;50.674;4.616;2022-11-04T14:56:36;21.20;;;10.53;;
20772;SDS011;10546;50.674;4.616;2022-11-04T14:59:03;27.43;;;14.40;;
20772;SDS011;10546;50.674;4.616;2022-11-04T15:01:31;24.87;;;13.00;;
20772;SDS011;10546;50.674;4.616;2022-11-04T15:04:06;21.23;;;11.67;;
20772;SDS011;10546;50.674;4.616;2022-11-04T15:06:38;18.03;;;10.50;;
20772;SDS011;10546;50.674;4.616;2022-11-04T15:09:16;17.07;;;9.90;;
20772;SDS011;10546;50.674;4.616;2022-11-04T15:14:54;13.77;;;8.37;;
20772;SDS011;10546;50.674;4.616;2022-11-04T15:17:21;16.30;;;8.47;;
20772;SDS011;10546;50.674;4.616;2022-11-04T15:19:51;15.63;;;9.03;;
20772;SDS011;10546;50.674;4.616;2022-11-04T15:22:20;15.40;;;8.73;;
20772;SDS011;10546;50.674;4.616;2022-11-04T15:24:46;14.07;;;7.40;;
20772;SDS011;10546;50.674;4.616;2022-11-04T15:27:18;15.23;;;7.37;;
20772;SDS011;10546;50.674;4.616;2022-11-04T15:30:00;14.93;;;6.93;;
20772;SDS011;10546;50.674;4.616;2022-11-04T15:32:27;14.77;;;6.20;;
20772;SDS011;10546;50.674;4.616;2022-11-04T15:34:53;14.03;;;6.20;;
20772;SDS011;10546;50.674;4.616;2022-11-04T15:37:20;13.13;;;5.53;;
20772;SDS011;10546;50.674;4.616;2022-11-04T15:39:49;10.70;;;4.77;;
20772;SDS011;10546;50.674;4.616;2022-11-04T15:42:18;7.43;;;4.47;;
20772;SDS011;10546;50.674;4.616;2022-11-04T15:45:15;7.17;;;2.57;;
20772;SDS011;10546;50.674;4.616;2022-11-04T15:50:50;8.40;;;2.20;;
20772;SDS011;10546;50.674;4.616;2022-11-04T15:53:36;2.83;;;1.30;;
20772;SDS011;10546;50.674;4.616;2022-11-04T15:56:25;2.93;;;1.70;;
20772;SDS011;10546;50.674;4.616;2022-11-04T15:58:53;4.40;;;1.60;;
20772;SDS011;10546;50.674;4.616;2022-11-04T16:01:20;3.13;;;1.53;;
20772;SDS011;10546;50.674;4.616;2022-11-04T16:03:53;2.30;;;1.50;;
20772;SDS011;10546;50.674;4.616;2022-11-04T16:09:01;5.63;;;1.57;;
20772;SDS011;10546;50.674;4.616;2022-11-04T16:11:51;5.00;;;1.60;;
20772;SDS011;10546;50.674;4.616;2022-11-04T16:14:31;5.33;;;1.73;;
20772;SDS011;10546;50.674;4.616;2022-11-04T16:16:57;4.77;;;1.60;;
20772;SDS011;10546;50.674;4.616;2022-11-04T16:19:23;1.97;;;1.40;;
20772;SDS011;10546;50.674;4.616;2022-11-04T16:21:58;4.00;;;1.50;;
20772;SDS011;10546;50.674;4.616;2022-11-04T16:24:36;6.17;;;1.87;;
20772;SDS011;10546;50.674;4.616;2022-11-04T16:27:08;6.27;;;3.53;;
20772;SDS011;10546;50.674;4.616;2022-11-04T16:29:35;7.57;;;3.43;;
20772;SDS011;10546;50.674;4.616;2022-11-04T16:32:06;5.80;;;2.63;;
20772;SDS011;10546;50.674;4.616;2022-11-04T16:34:38;7.97;;;3.03;;
20772;SDS011;10546;50.674;4.616;2022-11-04T16:37:03;5.23;;;2.60;;
20772;SDS011;10546;50.674;4.616;2022-11-04T16:39:29;5.43;;;2.30;;
20772;SDS011;10546;50.674;4.616;2022-11-04T16:41:56;6.70;;;2.60;;
20772;SDS011;10546;50.674;4.616;2022-11-04T16:44:23;7.07;;;2.77;;
20772;SDS011;10546;50.674;4.616;2022-11-04T16:46:49;7.43;;;3.87;;
20772;SDS011;10546;50.674;4.616;2022-11-04T16:49:16;4.80;;;3.03;;
20772;SDS011;10546;50.674;4.616;2022-11-04T16:51:45;3.83;;;2.53;;
20772;SDS011;10546;50.674;4.616;2022-11-04T16:54:14;4.50;;;2.50;;
20772;SDS011;10546;50.674;4.616;2022-11-04T16:56:40;6.50;;;2.70;;
20772;SDS011;10546;50.674;4.616;2022-11-04T16:59:07;5.40;;;2.07;;
20772;SDS011;10546;50.674;4.616;2022-11-04T17:01:35;6.47;;;2.73;;
20772;SDS011;10546;50.674;4.616;2022-11-04T17:04:03;4.20;;;2.80;;
20772;SDS011;10546;50.674;4.616;2022-11-04T17:06:32;4.63;;;2.23;;
20772;SDS011;10546;50.674;4.616;2022-11-04T17:08:59;5.93;;;3.43;;
20772;SDS011;10546;50.674;4.616;2022-11-04T17:11:25;10.70;;;5.63;;
20772;SDS011;10546;50.674;4.616;2022-11-04T17:13:51;9.23;;;4.20;;
20772;SDS011;10546;50.674;4.616;2022-11-04T17:16:16;7.63;;;4.10;;
20772;SDS011;10546;50.674;4.616;2022-11-04T17:18:42;6.47;;;3.10;;
20772;SDS011;10546;50.674;4.616;2022-11-04T17:21:10;6.27;;;3.00;;
20772;SDS011;10546;50.674;4.616;2022-11-04T17:23:38;7.20;;;2.90;;
20772;SDS011;10546;50.674;4.616;2022-11-04T17:26:05;7.03;;;2.80;;
20772;SDS011;10546;50.674;4.616;2022-11-04T17:28:31;5.83;;;3.30;;
20772;SDS011;10546;50.674;4.616;2022-11-04T17:30:57;12.03;;;3.90;;
20772;SDS011;10546;50.674;4.616;2022-11-04T17:33:23;8.23;;;3.73;;
20772;SDS011;10546;50.674;4.616;2022-11-04T17:35:48;8.03;;;3.97;;
20772;SDS011;10546;50.674;4.616;2022-11-04T17:38:15;9.20;;;5.60;;
20772;SDS011;10546;50.674;4.616;2022-11-04T17:40:42;9.83;;;5.23;;
20772;SDS011;10546;50.674;4.616;2022-11-04T17:43:26;28.20;;;14.83;;
20772;SDS011;10546;50.674;4.616;2022-11-04T17:46:10;15.40;;;9.60;;
20772;SDS011;10546;50.674;4.616;2022-11-04T17:48:55;17.77;;;11.90;;
20772;SDS011;10546;50.674;4.616;2022-11-04T17:51:21;20.23;;;14.23;;
20772;SDS011;10546;50.674;4.616;2022-11-04T17:53:47;15.83;;;11.50;;
20772;SDS011;10546;50.674;4.616;2022-11-04T17:56:18;13.37;;;8.47;;
20772;SDS011;10546;50.674;4.616;2022-11-04T17:58:45;17.30;;;8.77;;
20772;SDS011;10546;50.674;4.616;2022-11-04T18:01:13;22.07;;;13.83;;
20772;SDS011;10546;50.674;4.616;2022-11-04T18:03:40;25.73;;;13.73;;
20772;SDS011;10546;50.674;4.616;2022-11-04T18:06:06;16.87;;;10.33;;
20772;SDS011;10546;50.674;4.616;2022-11-04T18:08:33;20.00;;;11.47;;
20772;SDS011;10546;50.674;4.616;2022-11-04T18:11:00;17.67;;;9.90;;
20772;SDS011;10546;50.674;4.616;2022-11-04T18:13:28;30.60;;;19.27;;
20772;SDS011;10546;50.674;4.616;2022-11-04T18:15:53;36.40;;;23.60;;
20772;SDS011;10546;50.674;4.616;2022-11-04T18:18:19;30.10;;;19.87;;
20772;SDS011;10546;50.674;4.616;2022-11-04T18:20:45;25.10;;;15.73;;
20772;SDS011;10546;50.674;4.616;2022-11-04T18:23:11;25.47;;;14.73;;
20772;SDS011;10546;50.674;4.616;2022-11-04T18:25:40;27.70;;;16.80;;
20772;SDS011;10546;50.674;4.616;2022-11-04T18:28:07;28.40;;;17.90;;
20772;SDS011;10546;50.674;4.616;2022-11-04T18:30:34;21.87;;;12.03;;
20772;SDS011;10546;50.674;4.616;2022-11-04T18:33:02;17.07;;;10.77;;
20772;SDS011;10546;50.674;4.616;2022-11-04T18:35:28;17.50;;;10.20;;
20772;SDS011;10546;50.674;4.616;2022-11-04T18:37:53;15.83;;;10.40;;
20772;SDS011;10546;50.674;4.616;2022-11-04T18:40:19;25.73;;;16.43;;
20772;SDS011;10546;50.674;4.616;2022-11-04T18:42:44;24.10;;;14.93;;
20772;SDS011;10546;50.674;4.616;2022-11-04T18:45:10;26.03;;;16.57;;
20772;SDS011;10546;50.674;4.616;2022-11-04T18:47:36;28.50;;;19.37;;
20772;SDS011;10546;50.674;4.616;2022-11-04T18:50:01;24.90;;;18.30;;
20772;SDS011;10546;50.674;4.616;2022-11-04T18:52:27;37.20;;;24.63;;
20772;SDS011;10546;50.674;4.616;2022-11-04T18:54:53;44.97;;;28.63;;
20772;SDS011;10546;50.674;4.616;2022-11-04T18:57:18;38.80;;;22.10;;
20772;SDS011;10546;50.674;4.616;2022-11-04T18:59:44;24.83;;;15.00;;
20772;SDS011;10546;50.674;4.616;2022-11-04T19:02:14;23.03;;;14.80;;
20772;SDS011;10546;50.674;4.616;2022-11-04T19:04:44;25.10;;;16.10;;
20772;SDS011;10546;50.674;4.616;2022-11-04T19:07:10;32.37;;;24.80;;
20772;SDS011;10546;50.674;4.616;2022-11-04T19:09:35;33.93;;;23.57;;
20772;SDS011;10546;50.674;4.616;2022-11-04T19:12:02;27.23;;;14.20;;
20772;SDS011;10546;50.674;4.616;2022-11-04T19:14:47;32.20;;;17.70;;
20772;SDS011;10546;50.674;4.616;2022-11-04T19:17:13;23.50;;;14.37;;
20772;SDS011;10546;50.674;4.616;2022-11-04T19:19:39;36.80;;;22.00;;
20772;SDS011;10546;50.674;4.616;2022-11-04T19:22:05;24.93;;;14.87;;
20772;SDS011;10546;50.674;4.616;2022-11-04T19:24:31;22.10;;;12.70;;
20772;SDS011;10546;50.674;4.616;2022-11-04T19:26:57;25.40;;;13.70;;
20772;SDS011;10546;50.674;4.616;2022-11-04T19:29:23;18.37;;;12.43;;
20772;SDS011;10546;50.674;4.616;2022-11-04T19:31:49;27.70;;;15.30;;
20772;SDS011;10546;50.674;4.616;2022-11-04T19:34:14;34.43;;;18.30;;
20772;SDS011;10546;50.674;4.616;2022-11-04T19:36:40;42.10;;;19.97;;
20772;SDS011;10546;50.674;4.616;2022-11-04T19:39:05;54.37;;;22.03;;
20772;SDS011;10546;50.674;4.616;2022-11-04T19:41:31;94.17;;;31.80;;
20772;SDS011;10546;50.674;4.616;2022-11-04T19:44:16;35.30;;;19.60;;
20772;SDS011;10546;50.674;4.616;2022-11-04T19:46:43;31.87;;;19.50;;
20772;SDS011;10546;50.674;4.616;2022-11-04T19:49:10;28.50;;;15.87;;
20772;SDS011;10546;50.674;4.616;2022-11-04T19:51:36;29.10;;;16.50;;
20772;SDS011;10546;50.674;4.616;2022-11-04T19:54:02;36.90;;;23.00;;
20772;SDS011;10546;50.674;4.616;2022-11-04T19:56:29;52.47;;;32.17;;
20772;SDS011;10546;50.674;4.616;2022-11-04T19:58:57;48.17;;;29.30;;
20772;SDS011;10546;50.674;4.616;2022-11-04T20:01:24;28.93;;;18.30;;
20772;SDS011;10546;50.674;4.616;2022-11-04T20:03:49;29.13;;;16.10;;
20772;SDS011;10546;50.674;4.616;2022-11-04T20:06:16;26.67;;;14.97;;
20772;SDS011;10546;50.674;4.616;2022-11-04T20:08:43;34.10;;;15.73;;
20772;SDS011;10546;50.674;4.616;2022-11-04T20:11:10;54.70;;;30.27;;
20772;SDS011;10546;50.674;4.616;2022-11-04T20:13:37;39.23;;;19.73;;
20772;SDS011;10546;50.674;4.616;2022-11-04T20:16:21;24.33;;;12.70;;
20772;SDS011;10546;50.674;4.616;2022-11-04T20:18:52;29.27;;;14.23;;
20772;SDS011;10546;50.674;4.616;2022-11-04T20:21:23;27.53;;;16.03;;
20772;SDS011;10546;50.674;4.616;2022-11-04T20:23:53;33.67;;;19.07;;
20772;SDS011;10546;50.674;4.616;2022-11-04T20:26:23;28.57;;;16.03;;
20772;SDS011;10546;50.674;4.616;2022-11-04T20:28:50;26.17;;;15.47;;
20772;SDS011;10546;50.674;4.616;2022-11-04T20:31:23;23.63;;;15.10;;
20772;SDS011;10546;50.674;4.616;2022-11-04T20:33:53;26.83;;;14.30;;
20772;SDS011;10546;50.674;4.616;2022-11-04T20:36:20;30.30;;;13.73;;
20772;SDS011;10546;50.674;4.616;2022-11-04T20:38:59;25.90;;;12.73;;
20772;SDS011;10546;50.674;4.616;2022-11-04T20:41:28;24.23;;;15.40;;
20772;SDS011;10546;50.674;4.616;2022-11-04T20:43:54;21.47;;;12.37;;
20772;SDS011;10546;50.674;4.616;2022-11-04T20:46:21;27.83;;;12.30;;
20772;SDS011;10546;50.674;4.616;2022-11-04T20:48:53;23.57;;;12.33;;
20772;SDS011;10546;50.674;4.616;2022-11-04T20:51:24;25.50;;;13.73;;
20772;SDS011;10546;50.674;4.616;2022-11-04T20:53:56;24.43;;;12.37;;
20772;SDS011;10546;50.674;4.616;2022-11-04T20:56:24;24.97;;;12.40;;
20772;SDS011;10546;50.674;4.616;2022-11-04T20:58:52;22.77;;;13.53;;
20772;SDS011;10546;50.674;4.616;2022-11-04T21:01:22;26.20;;;13.37;;
20772;SDS011;10546;50.674;4.616;2022-11-04T21:03:58;25.53;;;13.00;;
20772;SDS011;10546;50.674;4.616;2022-11-04T21:06:29;25.23;;;12.87;;
20772;SDS011;10546;50.674;4.616;2022-11-04T21:08:56;27.13;;;13.77;;
20772;SDS011;10546;50.674;4.616;2022-11-04T21:11:23;24.13;;;13.37;;
20772;SDS011;10546;50.674;4.616;2022-11-04T21:13:48;20.20;;;11.77;;
20772;SDS011;10546;50.674;4.616;2022-11-04T21:16:14;25.50;;;12.17;;
20772;SDS011;10546;50.674;4.616;2022-11-04T21:18:41;24.50;;;13.67;;
20772;SDS011;10546;50.674;4.616;2022-11-04T21:21:07;28.70;;;13.43;;
20772;SDS011;10546;50.674;4.616;2022-11-04T21:23:35;20.20;;;11.73;;
20772;SDS011;10546;50.674;4.616;2022-11-04T21:26:08;19.20;;;12.23;;
20772;SDS011;10546;50.674;4.616;2022-11-04T21:28:36;26.70;;;12.13;;
20772;SDS011;10546;50.674;4.616;2022-11-04T21:31:03;22.17;;;12.17;;
20772;SDS011;10546;50.674;4.616;2022-11-04T21:33:33;24.97;;;12.80;;
20772;SDS011;10546;50.674;4.616;2022-11-04T21:36:02;29.03;;;12.50;;
20772;SDS011;10546;50.674;4.616;2022-11-04T21:38:29;25.60;;;13.60;;
20772;SDS011;10546;50.674;4.616;2022-11-04T21:41:10;34.80;;;16.40;;
20772;SDS011;10546;50.674;4.616;2022-11-04T21:43:37;29.80;;;16.07;;
20772;SDS011;10546;50.674;4.616;2022-11-04T21:46:04;35.53;;;21.17;;
20772;SDS011;10546;50.674;4.616;2022-11-04T21:48:32;28.27;;;13.93;;
20772;SDS011;10546;50.674;4.616;2022-11-04T21:51:03;24.50;;;13.50;;
20772;SDS011;10546;50.674;4.616;2022-11-04T21:53:40;29.43;;;12.97;;
20772;SDS011;10546;50.674;4.616;2022-11-04T21:56:08;21.33;;;12.17;;
20772;SDS011;10546;50.674;4.616;2022-11-04T21:58:36;24.23;;;12.63;;
20772;SDS011;10546;50.674;4.616;2022-11-04T22:01:03;23.53;;;13.27;;
20772;SDS011;10546;50.674;4.616;2022-11-04T22:03:30;24.40;;;12.00;;
20772;SDS011;10546;50.674;4.616;2022-11-04T22:06:04;28.60;;;11.23;;
20772;SDS011;10546;50.674;4.616;2022-11-04T22:08:35;21.80;;;12.47;;
20772;SDS011;10546;50.674;4.616;2022-11-04T22:11:13;22.03;;;11.27;;
20772;SDS011;10546;50.674;4.616;2022-11-04T22:13:41;24.33;;;10.67;;
20772;SDS011;10546;50.674;4.616;2022-11-04T22:16:14;21.83;;;11.73;;
20772;SDS011;10546;50.674;4.616;2022-11-04T22:18:41;21.80;;;11.47;;
20772;SDS011;10546;50.674;4.616;2022-11-04T22:21:09;22.17;;;12.30;;
20772;SDS011;10546;50.674;4.616;2022-11-04T22:23:39;17.90;;;10.97;;
20772;SDS011;10546;50.674;4.616;2022-11-04T22:26:08;24.47;;;10.60;;
20772;SDS011;10546;50.674;4.616;2022-11-04T22:28:38;22.63;;;11.23;;
20772;SDS011;10546;50.674;4.616;2022-11-04T22:31:09;18.80;;;10.20;;
20772;SDS011;10546;50.674;4.616;2022-11-04T22:33:40;27.87;;;11.40;;
20772;SDS011;10546;50.674;4.616;2022-11-04T22:36:06;25.93;;;11.07;;
20772;SDS011;10546;50.674;4.616;2022-11-04T22:38:33;18.33;;;9.97;;
20772;SDS011;10546;50.674;4.616;2022-11-04T22:40:59;20.10;;;10.97;;
20772;SDS011;10546;50.674;4.616;2022-11-04T22:43:26;22.37;;;10.33;;
20772;SDS011;10546;50.674;4.616;2022-11-04T22:45:53;21.77;;;10.93;;
20772;SDS011;10546;50.674;4.616;2022-11-04T22:48:19;19.60;;;11.80;;
20772;SDS011;10546;50.674;4.616;2022-11-04T22:50:46;19.77;;;10.37;;
20772;SDS011;10546;50.674;4.616;2022-11-04T22:53:17;22.93;;;10.53;;
